sensor_id;sensor_type;location;lat;lon;timestamp;temperature;humidity
78522;SHT31;67819;51.972;5.678;2023-04-01T00:01:32;11.3;83.1
78522;SHT31;67819;51.972;5.678;2023-04-01T00:04:03;11.3;83.1
78522;SHT31;67819;51.972;5.678;2023-04-01T00:06:32;11.4;83.1
78522;SHT31;67819;51.972;5.678;2023-04-01T00:09:01;11.4;83.0
78522;SHT31;67819;51.972;5.678;2023-04-01T00:11:30;11.4;83.1
78522;SHT31;67819;51.972;5.678;2023-04-01T00:14:00;11.4;83.2
78522;SHT31;67819;51.972;5.678;2023-04-01T00:16:31;11.4;83.2
78522;SHT31;67819;51.972;5.678;2023-04-01T00:19:00;11.4;83.1
78522;SHT31;67819;51.972;5.678;2023-04-01T00:21:28;11.4;83.0
78522;SHT31;67819;51.972;5.678;2023-04-01T00:23:58;11.4;82.8
78522;SHT31;67819;51.972;5.678;2023-04-01T00:26:26;11.4;82.8
78522;SHT31;67819;51.972;5.678;2023-04-01T00:28:57;11.4;82.8
78522;SHT31;67819;51.972;5.678;2023-04-01T00:31:27;11.4;82.8
78522;SHT31;67819;51.972;5.678;2023-04-01T00:33:56;11.4;82.9
78522;SHT31;67819;51.972;5.678;2023-04-01T00:36:25;11.4;82.7
78522;SHT31;67819;51.972;5.678;2023-04-01T00:38:54;11.5;82.7
78522;SHT31;67819;51.972;5.678;2023-04-01T00:41:24;11.5;82.7
78522;SHT31;67819;51.972;5.678;2023-04-01T00:44:15;11.5;82.6
78522;SHT31;67819;51.972;5.678;2023-04-01T00:46:45;11.5;82.6
78522;SHT31;67819;51.972;5.678;2023-04-01T00:49:17;11.5;82.4
78522;SHT31;67819;51.972;5.678;2023-04-01T00:51:50;11.6;82.3
78522;SHT31;67819;51.972;5.678;2023-04-01T00:54:22;11.6;82.4
78522;SHT31;67819;51.972;5.678;2023-04-01T00:56:56;11.6;82.3
78522;SHT31;67819;51.972;5.678;2023-04-01T00:59:30;11.6;82.3
78522;SHT31;67819;51.972;5.678;2023-04-01T01:02:01;11.6;82.0
78522;SHT31;67819;51.972;5.678;2023-04-01T01:04:31;11.6;82.1
78522;SHT31;67819;51.972;5.678;2023-04-01T01:07:13;11.6;82.3
78522;SHT31;67819;51.972;5.678;2023-04-01T01:09:55;11.6;82.5
78522;SHT31;67819;51.972;5.678;2023-04-01T01:12:30;11.5;82.6
78522;SHT31;67819;51.972;5.678;2023-04-01T01:15:11;11.5;82.9
78522;SHT31;67819;51.972;5.678;2023-04-01T01:17:51;11.5;83.0
78522;SHT31;67819;51.972;5.678;2023-04-01T01:22:06;11.5;83.1
78522;SHT31;67819;51.972;5.678;2023-04-01T01:24:54;11.5;83.0
78522;SHT31;67819;51.972;5.678;2023-04-01T01:27:24;11.5;82.8
78522;SHT31;67819;51.972;5.678;2023-04-01T01:30:14;11.5;82.6
78522;SHT31;67819;51.972;5.678;2023-04-01T01:32:59;11.5;82.1
78522;SHT31;67819;51.972;5.678;2023-04-01T01:35:35;11.5;81.9
78522;SHT31;67819;51.972;5.678;2023-04-01T01:38:09;11.4;81.6
78522;SHT31;67819;51.972;5.678;2023-04-01T01:40:42;11.4;81.3
78522;SHT31;67819;51.972;5.678;2023-04-01T01:43:16;11.4;81.6
78522;SHT31;67819;51.972;5.678;2023-04-01T01:45:51;11.4;81.9
78522;SHT31;67819;51.972;5.678;2023-04-01T01:48:23;11.4;81.7
78522;SHT31;67819;51.972;5.678;2023-04-01T01:50:53;11.4;81.6
78522;SHT31;67819;51.972;5.678;2023-04-01T01:53:22;11.4;81.1
78522;SHT31;67819;51.972;5.678;2023-04-01T01:55:51;11.4;81.3
78522;SHT31;67819;51.972;5.678;2023-04-01T01:58:23;11.3;80.9
78522;SHT31;67819;51.972;5.678;2023-04-01T02:00:56;11.3;80.8
78522;SHT31;67819;51.972;5.678;2023-04-01T02:03:29;11.3;80.9
78522;SHT31;67819;51.972;5.678;2023-04-01T02:06:02;11.3;81.0
78522;SHT31;67819;51.972;5.678;2023-04-01T02:08:35;11.3;81.1
78522;SHT31;67819;51.972;5.678;2023-04-01T02:11:11;11.3;81.4
78522;SHT31;67819;51.972;5.678;2023-04-01T02:13:47;11.3;81.8
78522;SHT31;67819;51.972;5.678;2023-04-01T02:16:22;11.3;81.8
78522;SHT31;67819;51.972;5.678;2023-04-01T02:18:54;11.3;82.0
78522;SHT31;67819;51.972;5.678;2023-04-01T02:21:29;11.3;81.9
78522;SHT31;67819;51.972;5.678;2023-04-01T02:24:02;11.3;81.8
78522;SHT31;67819;51.972;5.678;2023-04-01T02:26:34;11.2;81.9
78522;SHT31;67819;51.972;5.678;2023-04-01T02:29:06;11.2;82.2
78522;SHT31;67819;51.972;5.678;2023-04-01T02:31:36;11.2;82.4
78522;SHT31;67819;51.972;5.678;2023-04-01T02:34:05;11.2;82.6
78522;SHT31;67819;51.972;5.678;2023-04-01T02:36:34;11.1;82.7
78522;SHT31;67819;51.972;5.678;2023-04-01T02:39:07;11.1;82.8
78522;SHT31;67819;51.972;5.678;2023-04-01T02:41:41;11.1;82.8
78522;SHT31;67819;51.972;5.678;2023-04-01T02:44:12;11.1;82.9
78522;SHT31;67819;51.972;5.678;2023-04-01T02:46:41;11.1;82.7
78522;SHT31;67819;51.972;5.678;2023-04-01T02:49:11;11.1;82.8
78522;SHT31;67819;51.972;5.678;2023-04-01T02:51:39;11.1;82.8
78522;SHT31;67819;51.972;5.678;2023-04-01T02:54:08;11.1;82.7
78522;SHT31;67819;51.972;5.678;2023-04-01T02:56:39;11.1;82.7
78522;SHT31;67819;51.972;5.678;2023-04-01T02:59:07;11.1;82.7
78522;SHT31;67819;51.972;5.678;2023-04-01T03:01:36;11.1;82.6
78522;SHT31;67819;51.972;5.678;2023-04-01T03:04:05;11.0;82.9
78522;SHT31;67819;51.972;5.678;2023-04-01T03:06:36;11.0;83.0
78522;SHT31;67819;51.972;5.678;2023-04-01T03:09:06;11.0;82.9
78522;SHT31;67819;51.972;5.678;2023-04-01T03:11:35;11.0;82.8
78522;SHT31;67819;51.972;5.678;2023-04-01T03:14:04;11.0;82.8
78522;SHT31;67819;51.972;5.678;2023-04-01T03:16:33;11.0;82.9
78522;SHT31;67819;51.972;5.678;2023-04-01T03:19:02;11.0;82.9
78522;SHT31;67819;51.972;5.678;2023-04-01T03:21:30;11.0;83.2
78522;SHT31;67819;51.972;5.678;2023-04-01T03:23:59;11.0;82.9
78522;SHT31;67819;51.972;5.678;2023-04-01T03:26:30;11.0;82.7
78522;SHT31;67819;51.972;5.678;2023-04-01T03:28:58;11.0;82.7
78522;SHT31;67819;51.972;5.678;2023-04-01T03:31:27;11.0;82.9
78522;SHT31;67819;51.972;5.678;2023-04-01T03:33:56;11.0;82.5
78522;SHT31;67819;51.972;5.678;2023-04-01T03:36:25;11.0;82.4
78522;SHT31;67819;51.972;5.678;2023-04-01T03:38:54;11.0;82.3
78522;SHT31;67819;51.972;5.678;2023-04-01T03:41:22;11.0;82.4
78522;SHT31;67819;51.972;5.678;2023-04-01T03:43:53;10.9;82.9
78522;SHT31;67819;51.972;5.678;2023-04-01T03:46:22;10.9;82.9
78522;SHT31;67819;51.972;5.678;2023-04-01T03:48:51;10.9;83.1
78522;SHT31;67819;51.972;5.678;2023-04-01T03:51:19;10.9;82.9
78522;SHT31;67819;51.972;5.678;2023-04-01T03:53:48;10.9;83.2
78522;SHT31;67819;51.972;5.678;2023-04-01T03:56:17;10.8;83.2
78522;SHT31;67819;51.972;5.678;2023-04-01T03:58:46;10.8;83.4
78522;SHT31;67819;51.972;5.678;2023-04-01T04:01:17;10.8;83.4
78522;SHT31;67819;51.972;5.678;2023-04-01T04:03:47;10.8;83.3
78522;SHT31;67819;51.972;5.678;2023-04-01T04:06:18;10.8;83.4
78522;SHT31;67819;51.972;5.678;2023-04-01T04:08:47;10.8;83.5
78522;SHT31;67819;51.972;5.678;2023-04-01T04:11:17;10.8;83.5
78522;SHT31;67819;51.972;5.678;2023-04-01T04:13:46;10.8;83.6
78522;SHT31;67819;51.972;5.678;2023-04-01T04:16:17;10.8;83.5
78522;SHT31;67819;51.972;5.678;2023-04-01T04:18:46;10.8;83.7
78522;SHT31;67819;51.972;5.678;2023-04-01T04:21:15;10.8;83.8
78522;SHT31;67819;51.972;5.678;2023-04-01T04:23:44;10.8;83.8
78522;SHT31;67819;51.972;5.678;2023-04-01T04:26:14;10.8;83.9
78522;SHT31;67819;51.972;5.678;2023-04-01T04:28:43;10.8;83.9
78522;SHT31;67819;51.972;5.678;2023-04-01T04:31:20;10.8;83.9
78522;SHT31;67819;51.972;5.678;2023-04-01T04:33:50;10.8;83.7
78522;SHT31;67819;51.972;5.678;2023-04-01T04:36:20;10.8;83.8
78522;SHT31;67819;51.972;5.678;2023-04-01T04:38:49;10.8;83.9
78522;SHT31;67819;51.972;5.678;2023-04-01T04:41:19;10.8;84.1
78522;SHT31;67819;51.972;5.678;2023-04-01T04:43:52;10.8;84.0
78522;SHT31;67819;51.972;5.678;2023-04-01T04:46:22;10.8;84.1
78522;SHT31;67819;51.972;5.678;2023-04-01T04:48:51;10.8;84.1
78522;SHT31;67819;51.972;5.678;2023-04-01T04:51:20;10.8;84.2
78522;SHT31;67819;51.972;5.678;2023-04-01T04:53:49;10.8;84.2
78522;SHT31;67819;51.972;5.678;2023-04-01T04:56:20;10.7;84.4
78522;SHT31;67819;51.972;5.678;2023-04-01T04:58:50;10.7;84.7
78522;SHT31;67819;51.972;5.678;2023-04-01T05:01:19;10.7;84.7
78522;SHT31;67819;51.972;5.678;2023-04-01T05:03:48;10.7;84.8
78522;SHT31;67819;51.972;5.678;2023-04-01T05:06:18;10.8;84.7
78522;SHT31;67819;51.972;5.678;2023-04-01T05:08:46;10.8;84.8
78522;SHT31;67819;51.972;5.678;2023-04-01T05:11:19;10.8;84.8
78522;SHT31;67819;51.972;5.678;2023-04-01T05:13:48;10.8;84.9
78522;SHT31;67819;51.972;5.678;2023-04-01T05:16:20;10.8;84.9
78522;SHT31;67819;51.972;5.678;2023-04-01T05:18:48;10.8;85.0
78522;SHT31;67819;51.972;5.678;2023-04-01T05:21:17;10.8;85.0
78522;SHT31;67819;51.972;5.678;2023-04-01T05:23:46;10.8;85.0
78522;SHT31;67819;51.972;5.678;2023-04-01T05:26:15;10.8;85.1
78522;SHT31;67819;51.972;5.678;2023-04-01T05:28:43;10.9;85.2
78522;SHT31;67819;51.972;5.678;2023-04-01T05:31:12;10.9;85.2
78522;SHT31;67819;51.972;5.678;2023-04-01T05:33:43;10.9;85.2
78522;SHT31;67819;51.972;5.678;2023-04-01T05:36:13;10.9;85.1
78522;SHT31;67819;51.972;5.678;2023-04-01T05:38:43;10.9;85.2
78522;SHT31;67819;51.972;5.678;2023-04-01T05:41:13;11.0;85.1
78522;SHT31;67819;51.972;5.678;2023-04-01T05:43:42;11.0;85.1
78522;SHT31;67819;51.972;5.678;2023-04-01T05:46:13;11.0;85.1
78522;SHT31;67819;51.972;5.678;2023-04-01T05:48:41;11.0;85.1
78522;SHT31;67819;51.972;5.678;2023-04-01T05:51:15;11.0;84.9
78522;SHT31;67819;51.972;5.678;2023-04-01T05:53:44;11.1;84.9
78522;SHT31;67819;51.972;5.678;2023-04-01T05:56:13;11.1;84.9
78522;SHT31;67819;51.972;5.678;2023-04-01T05:58:41;11.1;84.9
78522;SHT31;67819;51.972;5.678;2023-04-01T06:01:11;11.1;84.8
78522;SHT31;67819;51.972;5.678;2023-04-01T06:03:40;11.1;84.8
78522;SHT31;67819;51.972;5.678;2023-04-01T06:06:13;11.1;84.9
78522;SHT31;67819;51.972;5.678;2023-04-01T06:08:43;11.1;84.8
78522;SHT31;67819;51.972;5.678;2023-04-01T06:11:22;11.1;85.0
78522;SHT31;67819;51.972;5.678;2023-04-01T06:14:10;11.1;85.1
78522;SHT31;67819;51.972;5.678;2023-04-01T06:16:48;11.1;85.2
78522;SHT31;67819;51.972;5.678;2023-04-01T06:19:29;11.1;85.0
78522;SHT31;67819;51.972;5.678;2023-04-01T06:27:07;11.2;85.0
78522;SHT31;67819;51.972;5.678;2023-04-01T06:29:52;11.2;85.0
78522;SHT31;67819;51.972;5.678;2023-04-01T06:32:44;11.2;85.2
78522;SHT31;67819;51.972;5.678;2023-04-01T06:35:31;11.2;85.3
78522;SHT31;67819;51.972;5.678;2023-04-01T06:38:20;11.2;84.9
78522;SHT31;67819;51.972;5.678;2023-04-01T06:45:08;11.3;84.8
78522;SHT31;67819;51.972;5.678;2023-04-01T06:47:55;11.3;85.0
78522;SHT31;67819;51.972;5.678;2023-04-01T06:50:32;11.3;84.6
78522;SHT31;67819;51.972;5.678;2023-04-01T06:53:11;11.3;84.5
78522;SHT31;67819;51.972;5.678;2023-04-01T06:55:44;11.3;84.6
78522;SHT31;67819;51.972;5.678;2023-04-01T06:58:20;11.3;84.8
78522;SHT31;67819;51.972;5.678;2023-04-01T07:00:53;11.3;84.7
78522;SHT31;67819;51.972;5.678;2023-04-01T07:03:32;11.3;84.7
78522;SHT31;67819;51.972;5.678;2023-04-01T07:06:04;11.3;84.7
78522;SHT31;67819;51.972;5.678;2023-04-01T07:08:37;11.3;84.6
78522;SHT31;67819;51.972;5.678;2023-04-01T07:11:10;11.3;84.6
78522;SHT31;67819;51.972;5.678;2023-04-01T07:13:48;11.3;84.8
78522;SHT31;67819;51.972;5.678;2023-04-01T07:16:23;11.4;84.8
78522;SHT31;67819;51.972;5.678;2023-04-01T07:18:59;11.4;84.8
78522;SHT31;67819;51.972;5.678;2023-04-01T07:21:35;11.4;84.8
78522;SHT31;67819;51.972;5.678;2023-04-01T07:24:09;11.4;85.2
78522;SHT31;67819;51.972;5.678;2023-04-01T07:26:38;11.4;85.1
78522;SHT31;67819;51.972;5.678;2023-04-01T07:29:09;11.4;84.8
78522;SHT31;67819;51.972;5.678;2023-04-01T07:32:17;11.4;84.9
78522;SHT31;67819;51.972;5.678;2023-04-01T07:34:56;11.4;84.7
78522;SHT31;67819;51.972;5.678;2023-04-01T07:37:36;11.4;84.6
78522;SHT31;67819;51.972;5.678;2023-04-01T07:40:21;11.4;85.0
78522;SHT31;67819;51.972;5.678;2023-04-01T07:43:07;11.4;85.3
78522;SHT31;67819;51.972;5.678;2023-04-01T07:45:48;11.4;85.3
78522;SHT31;67819;51.972;5.678;2023-04-01T07:48:30;11.4;85.1
78522;SHT31;67819;51.972;5.678;2023-04-01T07:51:03;11.4;85.1
78522;SHT31;67819;51.972;5.678;2023-04-01T07:53:40;11.4;84.9
78522;SHT31;67819;51.972;5.678;2023-04-01T07:56:15;11.4;84.9
78522;SHT31;67819;51.972;5.678;2023-04-01T07:58:59;11.4;84.7
78522;SHT31;67819;51.972;5.678;2023-04-01T08:01:39;11.4;84.6
78522;SHT31;67819;51.972;5.678;2023-04-01T08:04:24;11.4;84.7
78522;SHT31;67819;51.972;5.678;2023-04-01T08:07:03;11.4;85.0
78522;SHT31;67819;51.972;5.678;2023-04-01T08:09:44;11.4;85.1
78522;SHT31;67819;51.972;5.678;2023-04-01T08:12:31;11.4;85.6
78522;SHT31;67819;51.972;5.678;2023-04-01T08:15:15;11.4;85.3
78522;SHT31;67819;51.972;5.678;2023-04-01T08:18:00;11.4;85.3
78522;SHT31;67819;51.972;5.678;2023-04-01T08:20:37;11.4;85.4
78522;SHT31;67819;51.972;5.678;2023-04-01T08:23:13;11.4;85.6
78522;SHT31;67819;51.972;5.678;2023-04-01T08:25:48;11.4;86.1
78522;SHT31;67819;51.972;5.678;2023-04-01T08:28:23;11.4;86.3
78522;SHT31;67819;51.972;5.678;2023-04-01T08:30:57;11.4;86.5
78522;SHT31;67819;51.972;5.678;2023-04-01T08:33:29;11.4;86.2
78522;SHT31;67819;51.972;5.678;2023-04-01T08:36:03;11.4;86.1
78522;SHT31;67819;51.972;5.678;2023-04-01T08:38:37;11.4;86.2
78522;SHT31;67819;51.972;5.678;2023-04-01T08:41:31;11.4;86.4
78522;SHT31;67819;51.972;5.678;2023-04-01T08:44:18;11.4;86.5
78522;SHT31;67819;51.972;5.678;2023-04-01T08:47:12;11.4;86.7
78522;SHT31;67819;51.972;5.678;2023-04-01T08:49:48;11.4;86.5
78522;SHT31;67819;51.972;5.678;2023-04-01T08:52:34;11.5;86.8
78522;SHT31;67819;51.972;5.678;2023-04-01T08:55:27;11.5;86.8
78522;SHT31;67819;51.972;5.678;2023-04-01T08:58:07;11.5;86.2
78522;SHT31;67819;51.972;5.678;2023-04-01T09:00:47;11.5;86.2
78522;SHT31;67819;51.972;5.678;2023-04-01T09:04:02;11.5;86.2
78522;SHT31;67819;51.972;5.678;2023-04-01T09:06:37;11.5;86.2
78522;SHT31;67819;51.972;5.678;2023-04-01T09:09:25;11.5;85.9
78522;SHT31;67819;51.972;5.678;2023-04-01T09:12:26;11.5;86.0
78522;SHT31;67819;51.972;5.678;2023-04-01T09:17:12;11.5;85.5
78522;SHT31;67819;51.972;5.678;2023-04-01T09:20:06;11.5;85.7
78522;SHT31;67819;51.972;5.678;2023-04-01T09:22:50;11.5;85.9
78522;SHT31;67819;51.972;5.678;2023-04-01T09:25:38;11.5;86.3
78522;SHT31;67819;51.972;5.678;2023-04-01T09:28:19;11.5;86.5
78522;SHT31;67819;51.972;5.678;2023-04-01T09:31:11;11.6;86.8
78522;SHT31;67819;51.972;5.678;2023-04-01T09:34:12;11.6;86.4
78522;SHT31;67819;51.972;5.678;2023-04-01T09:36:47;11.7;86.2
78522;SHT31;67819;51.972;5.678;2023-04-01T09:39:35;11.7;85.8
78522;SHT31;67819;51.972;5.678;2023-04-01T09:42:29;11.8;86.5
78522;SHT31;67819;51.972;5.678;2023-04-01T09:45:07;11.8;85.4
78522;SHT31;67819;51.972;5.678;2023-04-01T09:47:54;11.9;85.3
78522;SHT31;67819;51.972;5.678;2023-04-01T09:50:35;11.9;85.0
78522;SHT31;67819;51.972;5.678;2023-04-01T09:53:30;11.9;85.5
78522;SHT31;67819;51.972;5.678;2023-04-01T09:56:27;11.9;85.1
78522;SHT31;67819;51.972;5.678;2023-04-01T10:04:22;12.1;85.2
78522;SHT31;67819;51.972;5.678;2023-04-01T10:07:17;12.2;84.4
78522;SHT31;67819;51.972;5.678;2023-04-01T10:13:19;12.3;84.1
78522;SHT31;67819;51.972;5.678;2023-04-01T10:20:46;12.6;83.1
78522;SHT31;67819;51.972;5.678;2023-04-01T10:23:34;12.7;82.9
78522;SHT31;67819;51.972;5.678;2023-04-01T10:26:31;12.8;82.9
78522;SHT31;67819;51.972;5.678;2023-04-01T10:29:31;13.0;82.2
78522;SHT31;67819;51.972;5.678;2023-04-01T10:34:12;13.1;81.4
78522;SHT31;67819;51.972;5.678;2023-04-01T10:37:15;13.3;80.8
78522;SHT31;67819;51.972;5.678;2023-04-01T10:45:52;13.6;78.8
78522;SHT31;67819;51.972;5.678;2023-04-01T10:49:50;13.7;76.8
78522;SHT31;67819;51.972;5.678;2023-04-01T10:53:05;13.8;77.3
78522;SHT31;67819;51.972;5.678;2023-04-01T10:56:44;13.8;76.7
78522;SHT31;67819;51.972;5.678;2023-04-01T10:59:28;13.9;75.6
78522;SHT31;67819;51.972;5.678;2023-04-01T11:05:32;14.0;75.4
78522;SHT31;67819;51.972;5.678;2023-04-01T11:09:46;14.0;75.6
78522;SHT31;67819;51.972;5.678;2023-04-01T11:28:28;13.8;75.7
78522;SHT31;67819;51.972;5.678;2023-04-01T11:31:15;13.7;77.1
78522;SHT31;67819;51.972;5.678;2023-04-01T11:33:51;13.6;77.4
78522;SHT31;67819;51.972;5.678;2023-04-01T11:36:32;13.5;79.4
78522;SHT31;67819;51.972;5.678;2023-04-01T11:39:17;13.5;79.9
78522;SHT31;67819;51.972;5.678;2023-04-01T11:41:57;13.5;79.6
78522;SHT31;67819;51.972;5.678;2023-04-01T11:44:30;13.5;79.2
78522;SHT31;67819;51.972;5.678;2023-04-01T11:47:22;13.5;78.1
78522;SHT31;67819;51.972;5.678;2023-04-01T11:50:08;13.5;77.1
78522;SHT31;67819;51.972;5.678;2023-04-01T11:52:54;13.5;76.5
78522;SHT31;67819;51.972;5.678;2023-04-01T11:55:31;13.4;77.1
78522;SHT31;67819;51.972;5.678;2023-04-01T11:58:58;13.3;78.8
78522;SHT31;67819;51.972;5.678;2023-04-01T12:01:45;13.1;78.7
78522;SHT31;67819;51.972;5.678;2023-04-01T12:05:08;12.8;80.8
78522;SHT31;67819;51.972;5.678;2023-04-01T12:08:04;12.5;82.4
78522;SHT31;67819;51.972;5.678;2023-04-01T12:10:39;12.4;84.9
78522;SHT31;67819;51.972;5.678;2023-04-01T12:13:19;12.4;85.8
78522;SHT31;67819;51.972;5.678;2023-04-01T12:16:02;12.4;85.6
78522;SHT31;67819;51.972;5.678;2023-04-01T12:18:38;12.4;84.4
78522;SHT31;67819;51.972;5.678;2023-04-01T12:21:21;12.4;84.3
78522;SHT31;67819;51.972;5.678;2023-04-01T12:24:06;12.4;84.5
78522;SHT31;67819;51.972;5.678;2023-04-01T12:27:23;12.4;83.3
78522;SHT31;67819;51.972;5.678;2023-04-01T12:30:27;12.3;83.6
78522;SHT31;67819;51.972;5.678;2023-04-01T12:38:22;12.2;84.7
78522;SHT31;67819;51.972;5.678;2023-04-01T12:41:04;12.2;85.1
78522;SHT31;67819;51.972;5.678;2023-04-01T12:48:56;12.2;85.5
78522;SHT31;67819;51.972;5.678;2023-04-01T12:52:10;12.2;85.1
78522;SHT31;67819;51.972;5.678;2023-04-01T12:55:40;12.2;85.0
78522;SHT31;67819;51.972;5.678;2023-04-01T12:58:50;12.2;86.0
78522;SHT31;67819;51.972;5.678;2023-04-01T13:01:30;12.2;86.2
78522;SHT31;67819;51.972;5.678;2023-04-01T13:07:29;12.3;87.6
78522;SHT31;67819;51.972;5.678;2023-04-01T13:10:09;12.4;87.2
78522;SHT31;67819;51.972;5.678;2023-04-01T13:13:37;12.4;86.6
78522;SHT31;67819;51.972;5.678;2023-04-01T13:16:16;12.5;85.8
78522;SHT31;67819;51.972;5.678;2023-04-01T13:18:55;12.6;84.7
78522;SHT31;67819;51.972;5.678;2023-04-01T13:21:38;12.6;83.7
78522;SHT31;67819;51.972;5.678;2023-04-01T13:24:19;12.6;84.0
78522;SHT31;67819;51.972;5.678;2023-04-01T13:27:01;12.5;84.1
78522;SHT31;67819;51.972;5.678;2023-04-01T13:29:36;12.5;83.8
78522;SHT31;67819;51.972;5.678;2023-04-01T13:32:34;12.4;84.0
78522;SHT31;67819;51.972;5.678;2023-04-01T13:35:28;12.4;84.3
78522;SHT31;67819;51.972;5.678;2023-04-01T13:38:32;12.3;84.9
78522;SHT31;67819;51.972;5.678;2023-04-01T13:41:04;12.2;86.0
78522;SHT31;67819;51.972;5.678;2023-04-01T13:43:41;12.2;85.9
78522;SHT31;67819;51.972;5.678;2023-04-01T13:46:25;12.2;86.2
78522;SHT31;67819;51.972;5.678;2023-04-01T13:49:22;12.2;86.5
78522;SHT31;67819;51.972;5.678;2023-04-01T13:52:55;12.2;87.0
78522;SHT31;67819;51.972;5.678;2023-04-01T13:55:35;12.2;86.6
78522;SHT31;67819;51.972;5.678;2023-04-01T14:03:19;12.2;87.0
78522;SHT31;67819;51.972;5.678;2023-04-01T14:06:12;12.2;86.9
78522;SHT31;67819;51.972;5.678;2023-04-01T14:08:59;12.2;86.6
78522;SHT31;67819;51.972;5.678;2023-04-01T14:11:39;12.2;87.1
78522;SHT31;67819;51.972;5.678;2023-04-01T14:14:24;12.3;87.1
78522;SHT31;67819;51.972;5.678;2023-04-01T14:17:47;12.3;87.1
78522;SHT31;67819;51.972;5.678;2023-04-01T14:20:27;12.3;86.5
78522;SHT31;67819;51.972;5.678;2023-04-01T14:25:06;12.3;86.8
78522;SHT31;67819;51.972;5.678;2023-04-01T14:27:47;12.3;86.3
78522;SHT31;67819;51.972;5.678;2023-04-01T14:30:48;12.3;86.9
78522;SHT31;67819;51.972;5.678;2023-04-01T14:33:28;12.4;86.9
78522;SHT31;67819;51.972;5.678;2023-04-01T14:36:22;12.4;85.7
78522;SHT31;67819;51.972;5.678;2023-04-01T14:38:58;12.4;85.7
78522;SHT31;67819;51.972;5.678;2023-04-01T14:41:42;12.3;85.8
78522;SHT31;67819;51.972;5.678;2023-04-01T14:44:27;12.3;85.9
78522;SHT31;67819;51.972;5.678;2023-04-01T14:47:24;12.3;86.3
78522;SHT31;67819;51.972;5.678;2023-04-01T14:50:06;12.2;87.2
78522;SHT31;67819;51.972;5.678;2023-04-01T14:52:40;12.2;86.7
78522;SHT31;67819;51.972;5.678;2023-04-01T14:55:25;12.3;87.4
78522;SHT31;67819;51.972;5.678;2023-04-01T14:58:43;12.3;87.1
78522;SHT31;67819;51.972;5.678;2023-04-01T15:01:23;12.3;86.6
78522;SHT31;67819;51.972;5.678;2023-04-01T15:04:05;12.3;87.4
78522;SHT31;67819;51.972;5.678;2023-04-01T15:07:10;12.3;87.2
78522;SHT31;67819;51.972;5.678;2023-04-01T15:09:45;12.3;87.2
78522;SHT31;67819;51.972;5.678;2023-04-01T15:12:26;12.3;85.8
78522;SHT31;67819;51.972;5.678;2023-04-01T15:15:19;12.2;86.9
78522;SHT31;67819;51.972;5.678;2023-04-01T15:18:01;12.2;86.7
78522;SHT31;67819;51.972;5.678;2023-04-01T15:20:50;12.2;86.2
78522;SHT31;67819;51.972;5.678;2023-04-01T15:23:30;12.2;87.1
78522;SHT31;67819;51.972;5.678;2023-04-01T15:27:01;12.2;87.3
78522;SHT31;67819;51.972;5.678;2023-04-01T15:29:45;12.2;86.8
78522;SHT31;67819;51.972;5.678;2023-04-01T15:32:23;12.2;86.3
78522;SHT31;67819;51.972;5.678;2023-04-01T15:35:00;12.2;86.4
78522;SHT31;67819;51.972;5.678;2023-04-01T15:37:39;12.2;86.8
78522;SHT31;67819;51.972;5.678;2023-04-01T15:40:22;12.2;85.1
78522;SHT31;67819;51.972;5.678;2023-04-01T15:43:17;12.2;84.4
78522;SHT31;67819;51.972;5.678;2023-04-01T15:45:58;12.1;85.8
78522;SHT31;67819;51.972;5.678;2023-04-01T15:48:47;12.0;86.2
78522;SHT31;67819;51.972;5.678;2023-04-01T15:51:48;12.0;86.7
78522;SHT31;67819;51.972;5.678;2023-04-01T15:54:27;11.9;86.1
78522;SHT31;67819;51.972;5.678;2023-04-01T15:57:16;11.9;86.2
78522;SHT31;67819;51.972;5.678;2023-04-01T16:00:15;11.9;86.7
78522;SHT31;67819;51.972;5.678;2023-04-01T16:02:49;11.8;86.8
78522;SHT31;67819;51.972;5.678;2023-04-01T16:05:30;11.8;86.7
78522;SHT31;67819;51.972;5.678;2023-04-01T16:08:18;11.8;86.6
78522;SHT31;67819;51.972;5.678;2023-04-01T16:11:02;11.8;86.2
78522;SHT31;67819;51.972;5.678;2023-04-01T16:13:45;11.7;86.5
78522;SHT31;67819;51.972;5.678;2023-04-01T16:16:28;11.7;85.9
78522;SHT31;67819;51.972;5.678;2023-04-01T16:19:17;11.7;85.6
78522;SHT31;67819;51.972;5.678;2023-04-01T16:21:57;11.6;86.5
78522;SHT31;67819;51.972;5.678;2023-04-01T16:24:34;11.6;86.4
78522;SHT31;67819;51.972;5.678;2023-04-01T16:27:08;11.6;86.7
78522;SHT31;67819;51.972;5.678;2023-04-01T16:29:45;11.5;85.8
78522;SHT31;67819;51.972;5.678;2023-04-01T16:32:46;11.5;85.7
78522;SHT31;67819;51.972;5.678;2023-04-01T16:35:28;11.4;85.6
78522;SHT31;67819;51.972;5.678;2023-04-01T16:38:03;11.4;86.4
78522;SHT31;67819;51.972;5.678;2023-04-01T16:40:43;11.4;86.5
78522;SHT31;67819;51.972;5.678;2023-04-01T16:43:24;11.3;86.1
78522;SHT31;67819;51.972;5.678;2023-04-01T16:46:35;11.3;86.7
78522;SHT31;67819;51.972;5.678;2023-04-01T16:49:53;11.3;86.7
78522;SHT31;67819;51.972;5.678;2023-04-01T16:52:36;11.2;86.6
78522;SHT31;67819;51.972;5.678;2023-04-01T16:55:16;11.2;86.6
78522;SHT31;67819;51.972;5.678;2023-04-01T16:57:51;11.2;86.6
78522;SHT31;67819;51.972;5.678;2023-04-01T17:00:38;11.2;86.5
78522;SHT31;67819;51.972;5.678;2023-04-01T17:03:13;11.1;85.7
78522;SHT31;67819;51.972;5.678;2023-04-01T17:05:58;11.1;85.7
78522;SHT31;67819;51.972;5.678;2023-04-01T17:08:47;11.1;86.1
78522;SHT31;67819;51.972;5.678;2023-04-01T17:11:23;11.1;86.2
78522;SHT31;67819;51.972;5.678;2023-04-01T17:14:06;11.0;86.0
78522;SHT31;67819;51.972;5.678;2023-04-01T17:16:56;11.0;85.7
78522;SHT31;67819;51.972;5.678;2023-04-01T17:20:04;11.0;86.0
78522;SHT31;67819;51.972;5.678;2023-04-01T17:22:43;11.0;85.0
78522;SHT31;67819;51.972;5.678;2023-04-01T17:25:28;10.9;85.4
78522;SHT31;67819;51.972;5.678;2023-04-01T17:28:07;10.9;84.9
78522;SHT31;67819;51.972;5.678;2023-04-01T17:30:47;10.9;85.5
78522;SHT31;67819;51.972;5.678;2023-04-01T17:33:45;10.9;85.2
78522;SHT31;67819;51.972;5.678;2023-04-01T17:36:29;10.8;85.2
78522;SHT31;67819;51.972;5.678;2023-04-01T17:39:16;10.8;85.4
78522;SHT31;67819;51.972;5.678;2023-04-01T17:41:54;10.8;85.4
78522;SHT31;67819;51.972;5.678;2023-04-01T17:44:37;10.7;85.3
78522;SHT31;67819;51.972;5.678;2023-04-01T17:47:17;10.7;85.1
78522;SHT31;67819;51.972;5.678;2023-04-01T17:50:00;10.7;85.1
78522;SHT31;67819;51.972;5.678;2023-04-01T17:52:37;10.6;84.6
78522;SHT31;67819;51.972;5.678;2023-04-01T17:55:29;10.6;84.8
78522;SHT31;67819;51.972;5.678;2023-04-01T17:58:06;10.6;84.9
78522;SHT31;67819;51.972;5.678;2023-04-01T18:00:50;10.5;85.0
78522;SHT31;67819;51.972;5.678;2023-04-01T18:03:33;10.5;85.0
78522;SHT31;67819;51.972;5.678;2023-04-01T18:06:06;10.5;85.1
78522;SHT31;67819;51.972;5.678;2023-04-01T18:08:53;10.5;84.8
78522;SHT31;67819;51.972;5.678;2023-04-01T18:11:38;10.5;84.4
78522;SHT31;67819;51.972;5.678;2023-04-01T18:14:35;10.5;83.7
78522;SHT31;67819;51.972;5.678;2023-04-01T18:17:20;10.5;82.8
78522;SHT31;67819;51.972;5.678;2023-04-01T18:20:05;10.4;82.8
78522;SHT31;67819;51.972;5.678;2023-04-01T18:22:42;10.4;83.5
78522;SHT31;67819;51.972;5.678;2023-04-01T18:25:19;10.4;83.1
78522;SHT31;67819;51.972;5.678;2023-04-01T18:28:11;10.3;83.0
78522;SHT31;67819;51.972;5.678;2023-04-01T18:30:29;10.3;83.2
78522;SHT31;67819;51.972;5.678;2023-04-01T18:33:04;10.3;83.5
78522;SHT31;67819;51.972;5.678;2023-04-01T18:35:47;10.2;83.8
78522;SHT31;67819;51.972;5.678;2023-04-01T18:38:27;10.2;83.5
78522;SHT31;67819;51.972;5.678;2023-04-01T18:41:06;10.2;83.4
78522;SHT31;67819;51.972;5.678;2023-04-01T18:43:46;10.2;83.7